Time;durP1;ratioP1;P1;durP2;ratioP2;P2;SDS_P1;SDS_P2;PMS_P1;PMS_P2;Temp;Humidity;BMP_temperature;BMP_pressure;BME280_temperature;BME280_humidity;BME280_pressure;Samples;Min_cycle;Max_cycle;Signal;HPM_P1;HPM_P2
2021/09/18 00:00:37;;;;;;;7.22;4.55;;;;;;;7.53;100.00;93058.41;2124075;27;20019;-79
2021/09/18 00:01:39;;;;;;;4.32;3.88;;;;;;;7.60;100.00;93054.16;2117520;27;20034;-78
2021/09/18 00:02:40;;;;;;;6.43;4.10;;;;;;;7.57;100.00;93045.81;2111747;28;20016;-80
2021/09/18 00:03:42;;;;;;;5.47;4.22;;;;;;;7.61;100.00;93053.75;2098643;28;20024;-80
2021/09/18 00:04:44;;;;;;;4.90;4.40;;;;;;;7.52;100.00;93042.84;2113523;28;20023;-79
2021/09/18 00:05:46;;;;;;;4.63;4.22;;;;;;;7.52;100.00;93045.50;2115958;28;20023;-81
2021/09/18 00:06:47;;;;;;;6.15;4.05;;;;;;;7.55;100.00;93047.34;2114464;28;20027;-80
2021/09/18 00:07:48;;;;;;;9.40;4.45;;;;;;;7.53;100.00;93053.09;2091196;28;20028;-80
2021/09/18 00:08:50;;;;;;;5.00;4.07;;;;;;;7.61;100.00;93047.69;2105742;28;20111;-80
2021/09/18 00:09:51;;;;;;;6.45;4.40;;;;;;;7.49;100.00;93062.25;2115909;28;20027;-78
2021/09/18 00:10:52;;;;;;;4.57;4.18;;;;;;;7.53;100.00;93055.00;2110264;28;20039;-80
2021/09/18 00:11:55;;;;;;;5.50;4.30;;;;;;;7.61;100.00;93051.09;2116109;28;20514;-80
2021/09/18 00:12:57;;;;;;;4.20;3.80;;;;;;;7.56;100.00;93051.53;2115275;28;20073;-79
2021/09/18 00:13:58;;;;;;;5.10;4.57;;;;;;;7.46;100.00;93053.19;2115327;28;20867;-80
2021/09/18 00:15:01;;;;;;;4.40;3.83;;;;;;;7.38;100.00;93049.09;2115299;28;20020;-82
2021/09/18 00:16:03;;;;;;;5.00;4.25;;;;;;;7.50;100.00;93055.78;2115090;28;20024;-78
2021/09/18 00:17:04;;;;;;;6.65;4.70;;;;;;;7.60;100.00;93048.84;2104776;28;20099;-79
2021/09/18 00:18:05;;;;;;;4.30;3.90;;;;;;;7.52;100.00;93045.50;2112684;28;20020;-78
2021/09/18 00:19:06;;;;;;;5.30;3.90;;;;;;;7.45;100.00;93056.97;2107915;28;20035;-79
2021/09/18 00:20:09;;;;;;;6.28;4.30;;;;;;;7.42;100.00;93049.81;2113994;28;20022;-79
2021/09/18 00:21:10;;;;;;;4.68;4.28;;;;;;;7.44;100.00;93044.84;2109000;28;20377;-79
2021/09/18 00:22:12;;;;;;;4.50;4.10;;;;;;;7.44;100.00;93044.84;2115834;28;20030;-77
2021/09/18 00:23:14;;;;;;;6.30;4.20;;;;;;;7.32;100.00;93048.75;2113267;28;20023;-83
2021/09/18 00:24:16;;;;;;;6.28;5.60;;;;;;;7.34;100.00;93045.72;2107946;28;20020;-79
2021/09/18 00:25:18;;;;;;;4.93;4.53;;;;;;;7.43;100.00;93046.00;2105437;28;20039;-83
2021/09/18 00:26:21;;;;;;;6.57;4.28;;;;;;;7.33;100.00;93049.50;2100003;28;20126;-78
2021/09/18 00:27:23;;;;;;;8.10;4.88;;;;;;;7.29;100.00;93051.47;2102111;28;20162;-78
2021/09/18 00:28:24;;;;;;;5.07;4.00;;;;;;;7.23;100.00;93047.72;2096949;28;20091;-78
2021/09/18 00:29:25;;;;;;;6.90;4.70;;;;;;;7.31;100.00;93046.50;2090243;28;20037;-82
2021/09/18 00:30:26;;;;;;;4.57;3.90;;;;;;;7.29;100.00;93041.59;2113850;27;20063;-83
2021/09/18 00:31:28;;;;;;;5.03;4.53;;;;;;;7.31;100.00;93046.50;2112005;28;20472;-81
2021/09/18 00:32:30;;;;;;;4.40;3.90;;;;;;;7.38;100.00;93051.75;2110714;28;20036;-80
2021/09/18 00:33:32;;;;;;;7.43;4.10;;;;;;;7.36;100.00;93047.97;2112101;28;20104;-77
2021/09/18 00:34:33;;;;;;;4.55;4.15;;;;;;;7.38;100.00;93043.75;2113989;28;20023;-81
2021/09/18 00:35:34;;;;;;;4.03;3.72;;;;;;;7.34;100.00;93044.97;2107646;28;20016;-79
2021/09/18 00:36:35;;;;;;;5.13;4.13;;;;;;;7.31;100.00;93039.25;2109710;28;20460;-80
2021/09/18 00:37:36;;;;;;;4.68;4.28;;;;;;;7.19;100.00;93039.00;2112746;28;20572;-79
2021/09/18 00:38:38;;;;;;;4.80;4.43;;;;;;;7.18;100.00;93042.84;2100142;28;20028;-80
2021/09/18 00:39:39;;;;;;;4.95;4.43;;;;;;;7.18;100.00;93037.50;2109993;28;20020;-81
2021/09/18 00:40:41;;;;;;;5.78;4.43;;;;;;;7.23;100.00;93037.06;2115736;28;20030;-82
2021/09/18 00:41:42;;;;;;;7.57;3.92;;;;;;;7.26;100.00;93044.28;2113744;28;20103;-79
2021/09/18 00:42:43;;;;;;;8.52;5.85;;;;;;;7.30;100.00;93040.41;2115694;28;20030;-80
2021/09/18 00:43:57;;;;;;;4.50;4.10;;;;;;;7.21;100.00;93036.72;2105895;28;20106;-81
2021/09/18 00:44:59;;;;;;;9.80;4.20;;;;;;;7.29;100.00;93041.59;2101037;28;20453;-77
2021/09/18 00:46:00;;;;;;;4.70;4.30;;;;;;;7.29;100.00;93040.84;2108457;28;20020;-80
2021/09/18 00:47:01;;;;;;;13.20;4.55;;;;;;;7.25;100.00;93038.19;2111141;28;20103;-79
2021/09/18 00:48:03;;;;;;;6.80;4.70;;;;;;;7.19;100.00;93034.44;2114118;28;20012;-82
2021/09/18 00:49:05;;;;;;;5.13;4.63;;;;;;;7.20;100.00;93038.63;2105144;28;20031;-79
2021/09/18 00:50:06;;;;;;;4.47;4.07;;;;;;;7.03;100.00;93037.66;2103284;28;20047;-79
2021/09/18 00:51:07;;;;;;;4.63;4.22;;;;;;;7.19;100.00;93036.34;2114987;28;20031;-80
2021/09/18 00:52:12;;;;;;;8.27;5.32;;;;;;;7.14;100.00;93034.88;2112541;28;20386;-79
2021/09/18 00:53:14;;;;;;;4.63;4.15;;;;;;;7.26;100.00;93033.63;2109245;28;20072;-82
2021/09/18 00:54:15;;;;;;;4.88;4.38;;;;;;;7.14;100.00;93036.78;2108566;28;20078;-79
2021/09/18 00:55:17;;;;;;;5.07;4.60;;;;;;;7.26;100.00;93038.94;2108793;28;20059;-78
2021/09/18 00:56:18;;;;;;;5.25;4.82;;;;;;;7.20;100.00;93035.19;2111255;28;20467;-78
2021/09/18 00:57:19;;;;;;;7.45;4.60;;;;;;;7.09;100.00;93037.22;2105502;28;20053;-81
2021/09/18 00:58:20;;;;;;;6.20;4.65;;;;;;;7.22;100.00;93033.66;2110759;28;20020;-81
2021/09/18 00:59:22;;;;;;;5.85;4.60;;;;;;;7.12;100.00;93039.09;2115606;28;20448;-82
2021/09/18 01:00:23;;;;;;;5.38;4.68;;;;;;;7.09;100.00;93039.88;2117153;27;20102;-79
2021/09/18 01:01:24;;;;;;;5.50;4.45;;;;;;;7.11;100.00;93037.56;2110597;28;20050;-78
2021/09/18 01:02:25;;;;;;;7.32;4.72;;;;;;;7.20;100.00;93035.19;2110973;28;20028;-80
2021/09/18 01:03:28;;;;;;;6.22;4.45;;;;;;;7.11;100.00;93032.25;2106325;28;20055;-78
2021/09/18 01:04:29;;;;;;;5.65;4.85;;;;;;;6.94;100.00;93034.72;2114984;28;20078;-81
2021/09/18 01:05:30;;;;;;;5.85;4.80;;;;;;;6.88;100.00;93040.84;2102070;28;20020;-80
2021/09/18 01:06:32;;;;;;;4.57;4.25;;;;;;;6.87;100.00;93032.13;2104026;28;20069;-80
2021/09/18 01:07:36;;;;;;;6.13;4.53;;;;;;;6.96;100.00;93036.97;2112565;27;20189;-80
2021/09/18 01:08:37;;;;;;;5.53;4.30;;;;;;;6.94;100.00;93034.72;2121620;27;20027;-80
2021/09/18 01:09:39;;;;;;;5.03;4.57;;;;;;;6.91;100.00;93038.16;2117152;27;20515;-78
2021/09/18 01:10:40;;;;;;;6.20;4.45;;;;;;;6.97;100.00;93038.47;2116721;27;20345;-78
2021/09/18 01:11:41;;;;;;;6.63;4.63;;;;;;;6.93;100.00;93037.75;2101011;28;20078;-79
2021/09/18 01:13:06;;;;;;;7.07;4.32;;;;;;;6.86;100.00;93032.50;2108067;28;20665;-81
2021/09/18 01:14:09;;;;;;;6.15;4.65;;;;;;;6.95;100.00;93033.56;2118052;27;20031;-79
2021/09/18 01:15:10;;;;;;;6.65;3.90;;;;;;;6.96;100.00;93035.06;2118848;27;20028;-80
2021/09/18 01:16:11;;;;;;;6.45;4.25;;;;;;;6.79;100.00;93031.41;2119356;27;20034;-80
2021/09/18 01:17:14;;;;;;;5.88;4.43;;;;;;;6.75;100.00;93029.94;2123142;27;20021;-81
2021/09/18 01:18:17;;;;;;;6.88;5.38;;;;;;;6.82;100.00;93027.22;2097953;28;20115;-80
2021/09/18 01:19:19;;;;;;;5.50;4.43;;;;;;;6.94;100.00;93032.06;2098949;28;20504;-82
2021/09/18 01:20:21;;;;;;;7.47;4.20;;;;;;;6.84;100.00;93026.81;2117713;27;20389;-80
2021/09/18 01:21:22;;;;;;;5.45;4.25;;;;;;;6.88;100.00;93035.53;2118584;27;20031;-82
2021/09/18 01:22:26;;;;;;;4.63;4.20;;;;;;;6.96;100.00;93029.75;2119488;27;20026;-78
2021/09/18 01:23:28;;;;;;;6.05;4.47;;;;;;;6.79;100.00;93025.34;2122192;27;20370;-80
2021/09/18 01:24:30;;;;;;;5.93;4.50;;;;;;;6.80;100.00;93024.19;2123305;27;20027;-80
2021/09/18 01:25:35;;;;;;;4.93;4.00;;;;;;;6.86;100.00;93029.84;2122311;27;20061;-78
2021/09/18 01:26:38;;;;;;;5.43;3.97;;;;;;;6.89;100.00;93027.19;2120036;27;20092;-77
2021/09/18 01:27:42;;;;;;;5.57;4.43;;;;;;;6.83;100.00;93031.38;2114212;28;20118;-80
2021/09/18 01:28:44;;;;;;;6.20;4.35;;;;;;;6.71;100.00;93031.88;2110930;28;20051;-79
2021/09/18 01:29:45;;;;;;;7.88;4.22;;;;;;;6.66;100.00;93025.06;2121161;27;20565;-81
2021/09/18 01:30:46;;;;;;;7.03;4.20;;;;;;;6.74;100.00;93028.44;2122426;27;20498;-78
2021/09/18 01:31:48;;;;;;;5.45;4.80;;;;;;;6.50;100.00;93030.16;2106209;28;20098;-79
2021/09/18 01:32:50;;;;;;;5.47;4.65;;;;;;;6.57;100.00;93022.88;2114471;28;20038;-79
2021/09/18 01:33:52;;;;;;;5.55;4.32;;;;;;;6.59;100.00;93024.41;2105470;28;20028;-80
2021/09/18 01:34:53;;;;;;;5.47;4.97;;;;;;;6.62;100.00;93020.94;2108851;27;20084;-80
2021/09/18 01:35:54;;;;;;;5.22;4.70;;;;;;;6.62;100.00;93018.28;2120349;27;20035;-81
2021/09/18 01:36:57;;;;;;;7.03;4.95;;;;;;;6.67;100.00;93023.19;2117988;27;20027;-79
2021/09/18 01:37:59;;;;;;;5.00;4.50;;;;;;;6.53;100.00;93022.16;2117300;27;20098;-81
2021/09/18 01:39:04;;;;;;;5.28;4.32;;;;;;;6.57;100.00;93017.56;2121516;27;20057;-79
2021/09/18 01:40:06;;;;;;;12.73;4.97;;;;;;;6.46;100.00;93019.56;2114581;28;20111;-82
2021/09/18 01:41:07;;;;;;;5.20;4.25;;;;;;;6.50;100.00;93017.63;2114405;27;20882;-78
2021/09/18 01:42:08;;;;;;;6.10;4.20;;;;;;;6.64;100.00;93018.66;2122983;27;20371;-80
2021/09/18 01:43:11;;;;;;;5.30;4.10;;;;;;;6.59;100.00;93013.78;2106097;28;20179;-82
2021/09/18 01:44:13;;;;;;;4.70;4.22;;;;;;;6.59;100.00;93021.75;2106473;28;20046;-79
2021/09/18 01:45:15;;;;;;;7.18;4.80;;;;;;;6.64;100.00;93008.03;2122044;27;20164;-80
2021/09/18 01:46:16;;;;;;;6.80;4.55;;;;;;;6.70;100.00;93017.09;2117807;27;20035;-82
2021/09/18 01:47:17;;;;;;;4.60;3.85;;;;;;;6.63;100.00;93017.13;2118712;27;20020;-77
2021/09/18 01:48:19;;;;;;;5.90;4.55;;;;;;;6.59;100.00;93014.53;2111338;28;20125;-79
2021/09/18 01:49:20;;;;;;;4.65;4.25;;;;;;;6.60;100.00;93016.03;2108602;28;20027;-77
2021/09/18 01:50:25;;;;;;;5.18;4.63;;;;;;;6.59;100.00;93017.19;2109947;28;20047;-78
2021/09/18 01:51:29;;;;;;;6.07;4.55;;;;;;;6.54;100.00;93012.28;2111119;28;20031;-80
2021/09/18 01:52:34;;;;;;;6.65;4.75;;;;;;;6.52;100.00;93019.91;2116517;27;20032;-78
2021/09/18 01:53:35;;;;;;;8.18;4.22;;;;;;;6.31;100.00;93016.25;2119020;27;20076;-79
2021/09/18 01:54:37;;;;;;;4.93;4.03;;;;;;;6.39;100.00;93018.84;2118208;27;20031;-79
2021/09/18 01:55:38;;;;;;;7.15;4.22;;;;;;;6.42;100.00;93021.50;2120999;27;20460;-82
2021/09/18 01:56:40;;;;;;;5.10;3.92;;;;;;;6.37;100.00;93024.56;2108130;28;20173;-78
2021/09/18 01:57:47;;;;;;;4.88;3.88;;;;;;;6.36;100.00;93019.63;2102282;28;20043;-81
2021/09/18 01:58:50;;;;;;;4.82;4.10;;;;;;;6.50;100.00;93019.53;2109823;28;20664;-76
2021/09/18 01:59:51;;;;;;;4.60;4.00;;;;;;;6.44;100.00;93035.13;2117664;27;20018;-79
2021/09/18 02:00:54;;;;;;;5.97;4.45;;;;;;;6.51;100.00;93027.09;2120320;27;20509;-79
2021/09/18 02:01:55;;;;;;;4.50;4.20;;;;;;;6.43;100.00;93024.91;2114567;27;20110;-79
2021/09/18 02:02:56;;;;;;;4.95;4.13;;;;;;;6.40;100.00;93026.41;2119403;27;20403;-78
2021/09/18 02:03:58;;;;;;;4.38;4.05;;;;;;;6.40;100.00;93029.06;2118625;27;20037;-79
2021/09/18 02:04:59;;;;;;;5.18;4.25;;;;;;;6.38;100.00;93022.66;2120001;27;20593;-80
2021/09/18 02:07:27;;;;;;;;;;;;;;;6.35;100.00;93031.41;2131266;27;20536;-79
2021/09/18 02:08:28;;;;;;;7.40;4.43;;;;;;;6.27;100.00;93023.47;2123245;27;19942;-79
2021/09/18 02:09:29;;;;;;;6.22;3.83;;;;;;;6.24;100.00;93028.84;2122681;27;20015;-80
2021/09/18 02:10:34;;;;;;;9.15;4.35;;;;;;;6.18;100.00;93023.16;2112684;28;20024;-81
2021/09/18 02:11:35;;;;;;;3.97;3.53;;;;;;;6.24;100.00;93026.94;2111354;28;20653;-81
2021/09/18 02:12:37;;;;;;;4.25;3.95;;;;;;;6.14;100.00;93021.69;2121653;27;20107;-81
2021/09/18 02:13:38;;;;;;;5.22;4.68;;;;;;;6.16;100.00;93020.16;2102682;28;20036;-80
2021/09/18 02:14:40;;;;;;;6.75;4.75;;;;;;;6.19;100.00;93021.25;2112947;28;20069;-81
2021/09/18 02:15:42;;;;;;;4.72;4.32;;;;;;;6.18;100.00;93022.41;2122901;27;20030;-80
2021/09/18 02:16:43;;;;;;;5.60;3.80;;;;;;;6.03;100.00;93019.09;2123681;27;20027;-80
2021/09/18 02:17:44;;;;;;;4.72;4.32;;;;;;;6.17;100.00;93020.91;2119908;28;20031;-79
2021/09/18 02:18:46;;;;;;;4.78;4.00;;;;;;;6.00;100.00;93017.22;2113508;28;20031;-79
2021/09/18 02:19:47;;;;;;;6.70;4.53;;;;;;;5.98;100.00;93022.16;2120856;28;20080;-78
2021/09/18 02:20:50;;;;;;;4.15;3.78;;;;;;;6.13;100.00;93020.94;2112261;28;20028;-79
2021/09/18 02:21:52;;;;;;;4.65;4.25;;;;;;;6.12;100.00;93016.03;2104941;28;20107;-78
2021/09/18 02:22:54;;;;;;;6.05;4.18;;;;;;;6.02;100.00;93018.34;2096503;28;20064;-76
2021/09/18 02:23:55;;;;;;;15.00;4.88;;;;;;;6.04;100.00;93020.59;2105116;28;20114;-81
2021/09/18 02:24:56;;;;;;;7.53;4.43;;;;;;;6.04;100.00;93010.00;2120137;28;20027;-79
2021/09/18 02:25:59;;;;;;;7.85;4.75;;;;;;;6.12;100.00;93019.44;2122305;27;20015;-81
2021/09/18 02:27:00;;;;;;;6.40;4.45;;;;;;;6.07;100.00;93019.09;2121606;28;20023;-79
2021/09/18 02:28:03;;;;;;;5.38;4.32;;;;;;;6.05;100.00;93020.22;2113274;28;20015;-78
2021/09/18 02:29:04;;;;;;;6.63;4.80;;;;;;;5.98;100.00;93025.56;2113230;28;20026;-79
2021/09/18 02:30:07;;;;;;;5.32;4.30;;;;;;;5.93;100.00;93014.63;2113172;28;20133;-77
2021/09/18 02:31:09;;;;;;;7.03;4.47;;;;;;;5.94;100.00;93016.88;2102882;28;20024;-81
2021/09/18 02:32:11;;;;;;;8.63;4.03;;;;;;;5.82;100.00;93020.69;2098173;28;20095;-80
2021/09/18 02:33:13;;;;;;;4.95;4.45;;;;;;;5.73;100.00;93023.03;2113540;28;20051;-80
2021/09/18 02:34:14;;;;;;;4.93;4.00;;;;;;;5.82;100.00;93020.69;2122300;28;20509;-78
2021/09/18 02:35:18;;;;;;;6.13;4.18;;;;;;;5.90;100.00;93020.66;2121805;27;20990;-81
2021/09/18 02:36:20;;;;;;;5.63;3.92;;;;;;;5.88;100.00;93021.03;2111248;28;20036;-80
2021/09/18 02:37:22;;;;;;;7.38;4.45;;;;;;;5.78;100.00;93017.31;2112833;28;20645;-79
2021/09/18 02:38:23;;;;;;;4.70;4.22;;;;;;;5.90;100.00;93010.81;2119950;28;20112;-82
2021/09/18 02:39:24;;;;;;;4.13;3.80;;;;;;;5.87;100.00;93021.44;2121812;28;20450;-79
2021/09/18 02:40:28;;;;;;;5.47;4.28;;;;;;;5.86;100.00;93012.72;2121525;28;20340;-80
2021/09/18 02:41:30;;;;;;;6.18;4.15;;;;;;;5.85;100.00;93015.78;2120826;28;20031;-80
2021/09/18 02:42:31;;;;;;;5.82;3.83;;;;;;;5.81;100.00;93016.53;2113037;28;20057;-78
2021/09/18 02:43:33;;;;;;;4.60;4.03;;;;;;;5.87;100.00;93010.81;2089512;28;20484;-79
2021/09/18 02:44:34;;;;;;;4.65;4.25;;;;;;;5.85;100.00;93016.53;2096692;28;20108;-80
2021/09/18 02:45:36;;;;;;;6.35;4.22;;;;;;;5.86;100.00;93004.78;2121361;28;20015;-80
2021/09/18 02:46:38;;;;;;;4.43;3.90;;;;;;;5.82;100.00;93006.69;2118941;27;20387;-78
2021/09/18 02:47:40;;;;;;;8.27;4.20;;;;;;;5.75;100.00;93009.38;2121477;28;20126;-79
2021/09/18 02:48:41;;;;;;;4.80;4.40;;;;;;;5.80;100.00;93008.97;2121538;28;20361;-82
2021/09/18 02:49:42;;;;;;;5.22;4.30;;;;;;;5.92;100.00;93008.53;2116435;28;20601;-83
2021/09/18 02:50:43;;;;;;;4.22;3.83;;;;;;;5.89;100.00;93009.31;2119898;27;20375;-78
2021/09/18 02:51:44;;;;;;;4.63;4.03;;;;;;;5.93;100.00;93007.41;2111355;28;20531;-79
2021/09/18 02:52:46;;;;;;;5.43;3.95;;;;;;;5.89;100.00;93017.28;2121511;28;20031;-80
2021/09/18 02:53:47;;;;;;;5.38;4.22;;;;;;;5.76;100.00;93010.91;2121237;28;20069;-80
2021/09/18 02:54:48;;;;;;;3.88;3.58;;;;;;;5.73;100.00;93009.75;2121326;28;20040;-82
2021/09/18 02:55:49;;;;;;;4.10;3.75;;;;;;;5.79;100.00;93002.94;2112837;28;20073;-81
2021/09/18 02:56:52;;;;;;;4.70;4.30;;;;;;;5.79;100.00;93008.22;2112862;28;20022;-80
2021/09/18 02:57:54;;;;;;;4.45;3.72;;;;;;;5.77;100.00;93007.09;2121541;28;20023;-78
2021/09/18 02:58:56;;;;;;;4.28;3.75;;;;;;;5.75;100.00;93002.19;2116159;28;20023;-81
2021/09/18 02:59:57;;;;;;;4.43;4.03;;;;;;;5.84;100.00;93003.63;2107114;28;20078;-80
2021/09/18 03:00:58;;;;;;;4.88;4.05;;;;;;;5.79;100.00;93002.16;2113155;28;20020;-81
2021/09/18 03:01:59;;;;;;;4.85;3.78;;;;;;;5.77;100.00;93007.84;2121195;28;20382;-81
2021/09/18 03:03:01;;;;;;;4.70;3.65;;;;;;;5.72;100.00;93004.84;2120570;28;20486;-79
2021/09/18 03:04:03;;;;;;;4.53;3.90;;;;;;;5.69;100.00;93001.06;2120494;28;20026;-79
2021/09/18 03:05:06;;;;;;;4.25;3.70;;;;;;;5.72;100.00;93002.22;2121266;28;20019;-78
2021/09/18 03:06:08;;;;;;;5.47;3.80;;;;;;;5.64;100.00;93004.13;2123951;27;20023;-78
2021/09/18 03:07:11;;;;;;;4.05;3.75;;;;;;;5.59;100.00;93003.78;2121005;28;20048;-80
2021/09/18 03:08:13;;;;;;;4.85;4.07;;;;;;;5.62;100.00;93006.44;2121093;28;20023;-80
2021/09/18 03:09:14;;;;;;;4.55;4.15;;;;;;;5.70;100.00;93005.22;2121978;27;20384;-78
2021/09/18 03:10:17;;;;;;;4.18;3.78;;;;;;;5.75;100.00;93010.16;2120885;28;21002;-80
2021/09/18 03:11:20;;;;;;;4.63;4.20;;;;;;;5.75;100.00;92999.53;2104781;28;20016;-78
2021/09/18 03:12:21;;;;;;;4.35;3.78;;;;;;;5.70;100.00;93004.47;2112230;28;20028;-79
2021/09/18 03:13:22;;;;;;;5.78;4.30;;;;;;;5.77;100.00;93007.09;2121206;28;20585;-80
2021/09/18 03:14:23;;;;;;;4.95;4.25;;;;;;;5.77;100.00;93001.78;2122076;27;20023;-83
2021/09/18 03:15:25;;;;;;;4.30;3.90;;;;;;;5.79;100.00;93008.22;2121831;27;20365;-80
2021/09/18 03:16:26;;;;;;;5.07;3.80;;;;;;;5.90;100.00;93004.75;2120995;28;20058;-79
2021/09/18 03:17:27;;;;;;;4.15;3.75;;;;;;;5.93;100.00;92999.47;2112838;28;20031;-81
2021/09/18 03:18:28;;;;;;;3.70;3.38;;;;;;;5.90;100.00;93002.84;2109087;28;20028;-79
2021/09/18 03:19:29;;;;;;;5.00;4.50;;;;;;;5.82;100.00;93004.03;2115770;28;20507;-79
2021/09/18 03:20:33;;;;;;;6.07;4.00;;;;;;;5.84;100.00;93006.28;2115393;28;20023;-82
2021/09/18 03:21:35;;;;;;;4.20;3.90;;;;;;;5.82;100.00;93004.03;2107090;28;20034;-79
2021/09/18 03:22:36;;;;;;;8.52;4.60;;;;;;;5.79;100.00;93002.94;2105927;28;20020;-79
2021/09/18 03:23:37;;;;;;;4.75;4.25;;;;;;;5.86;100.00;93004.78;2114063;28;20383;-80
2021/09/18 03:24:39;;;;;;;4.72;4.15;;;;;;;5.88;100.00;93009.69;2116455;28;20030;-80
2021/09/18 03:25:42;;;;;;;4.38;3.80;;;;;;;5.73;100.00;93003.72;2120319;27;20094;-79
2021/09/18 03:26:45;;;;;;;4.85;4.22;;;;;;;5.90;100.00;93004.75;2102767;28;20516;-81
2021/09/18 03:27:46;;;;;;;5.28;4.30;;;;;;;5.91;100.00;93007.00;2106081;28;20031;-80
2021/09/18 03:28:47;;;;;;;4.82;4.32;;;;;;;5.95;100.00;93007.03;2106259;28;20031;-80
2021/09/18 03:29:49;;;;;;;4.82;4.43;;;;;;;5.96;100.00;93006.63;2098822;28;20032;-78
2021/09/18 03:30:50;;;;;;;4.85;4.50;;;;;;;5.89;100.00;93006.66;2115289;28;20030;-80
2021/09/18 03:31:51;;;;;;;6.43;4.07;;;;;;;5.93;100.00;93007.41;2115581;28;20102;-80
2021/09/18 03:32:53;;;;;;;5.65;4.43;;;;;;;5.89;100.00;93009.31;2116120;28;20099;-81
2021/09/18 03:33:54;;;;;;;4.82;4.43;;;;;;;5.89;100.00;93011.22;2116138;28;20076;-77
2021/09/18 03:34:56;;;;;;;5.13;4.70;;;;;;;5.89;100.00;93006.66;2115919;28;20023;-77
2021/09/18 03:35:57;;;;;;;5.50;4.95;;;;;;;5.84;100.00;93016.91;2113318;28;20024;-80
2021/09/18 03:36:58;;;;;;;4.70;4.28;;;;;;;5.87;100.00;93008.94;2115477;28;20007;-79
2021/09/18 03:37:59;;;;;;;4.80;4.22;;;;;;;5.76;100.00;93014.31;2115408;28;20027;-77
2021/09/18 03:39:01;;;;;;;4.65;4.25;;;;;;;5.79;100.00;93010.88;2115215;28;20565;-80
2021/09/18 03:40:05;;;;;;;9.13;4.38;;;;;;;5.76;100.00;93013.56;2107039;28;20028;-79
2021/09/18 03:41:06;;;;;;;4.90;4.45;;;;;;;5.68;100.00;93007.53;2107264;28;20020;-81
2021/09/18 03:42:07;;;;;;;5.18;4.78;;;;;;;5.81;100.00;93005.19;2115361;28;20062;-80
2021/09/18 03:43:08;;;;;;;6.28;4.70;;;;;;;5.73;100.00;93014.31;2113721;28;20083;-80
2021/09/18 03:44:10;;;;;;;5.63;4.28;;;;;;;5.68;100.00;93010.16;2115598;28;20019;-79
2021/09/18 03:45:11;;;;;;;4.95;4.22;;;;;;;5.65;100.00;93005.63;2116071;28;20030;-76
2021/09/18 03:46:12;;;;;;;4.50;4.10;;;;;;;5.58;100.00;93000.38;2115236;28;20400;-77
2021/09/18 03:47:13;;;;;;;5.53;4.32;;;;;;;5.54;100.00;93004.94;2115054;28;20438;-78
2021/09/18 03:48:15;;;;;;;4.45;4.05;;;;;;;5.46;100.00;92996.25;2115109;28;20031;-78
2021/09/18 03:49:16;;;;;;;4.47;4.00;;;;;;;5.48;100.00;92998.53;2115458;28;20027;-80
2021/09/18 03:50:17;;;;;;;5.53;4.22;;;;;;;5.43;100.00;93001.56;2115177;28;20032;-78
2021/09/18 03:51:18;;;;;;;4.90;4.10;;;;;;;5.40;100.00;93000.47;2112979;28;20059;-82
2021/09/18 03:52:21;;;;;;;5.82;3.88;;;;;;;5.44;100.00;92997.78;2115273;28;20030;-80
2021/09/18 03:53:22;;;;;;;5.28;4.05;;;;;;;5.38;100.00;93005.38;2119204;27;20018;-81
2021/09/18 03:54:23;;;;;;;4.45;4.05;;;;;;;5.48;100.00;92996.63;2119150;27;20027;-80
2021/09/18 03:55:24;;;;;;;5.10;4.20;;;;;;;5.42;100.00;92998.19;2115841;28;20103;-81
2021/09/18 03:56:25;;;;;;;5.40;3.85;;;;;;;5.59;100.00;92996.59;2119179;27;20081;-82
2021/09/18 03:57:27;;;;;;;7.25;3.88;;;;;;;5.50;100.00;92999.66;2104473;28;20012;-82
2021/09/18 03:58:28;;;;;;;5.45;4.00;;;;;;;5.43;100.00;93001.56;2106686;28;20054;-78
2021/09/18 03:59:29;;;;;;;4.50;3.88;;;;;;;5.46;100.00;92998.16;2115301;28;20036;-79
2021/09/18 04:00:30;;;;;;;4.05;3.70;;;;;;;5.48;100.00;92998.53;2115219;28;20015;-77
2021/09/18 04:01:32;;;;;;;4.05;3.75;;;;;;;5.36;100.00;92993.66;2110734;28;20111;-81
2021/09/18 04:02:33;;;;;;;3.85;3.55;;;;;;;5.32;100.00;92990.28;2106956;28;20054;-78
2021/09/18 04:03:35;;;;;;;4.57;4.15;;;;;;;5.31;100.00;93000.09;2113805;28;20028;-79
2021/09/18 04:04:37;;;;;;;4.75;3.47;;;;;;;5.20;100.00;92999.41;2115232;28;20065;-80
2021/09/18 04:05:38;;;;;;;4.10;3.80;;;;;;;5.23;100.00;93004.69;2115038;28;20034;-81
2021/09/18 04:06:39;;;;;;;4.32;3.92;;;;;;;5.23;100.00;93002.03;2114124;28;20019;-77
2021/09/18 04:07:40;;;;;;;4.22;3.80;;;;;;;5.26;100.00;93003.16;2110530;28;20024;-78
2021/09/18 04:08:42;;;;;;;5.47;3.50;;;;;;;5.29;100.00;92997.84;2114292;27;20397;-77
2021/09/18 04:09:43;;;;;;;4.03;3.70;;;;;;;5.32;100.00;92998.22;2113680;27;20423;-80
2021/09/18 04:10:45;;;;;;;4.55;3.78;;;;;;;5.27;100.00;92999.38;2115844;28;20389;-80
2021/09/18 04:11:46;;;;;;;7.47;3.95;;;;;;;5.24;100.00;93000.91;2115737;28;20028;-78
2021/09/18 04:12:47;;;;;;;3.90;3.47;;;;;;;5.19;100.00;93011.13;2115788;28;20034;-78
2021/09/18 04:13:51;;;;;;;4.47;4.00;;;;;;;5.15;100.00;93008.50;2105173;28;20484;-82
2021/09/18 04:14:52;;;;;;;4.20;3.80;;;;;;;5.05;100.00;93007.41;2099002;28;20029;-78
2021/09/18 04:15:53;;;;;;;4.55;4.15;;;;;;;5.18;100.00;93006.97;2106704;28;20035;-80
2021/09/18 04:16:54;;;;;;;4.65;4.22;;;;;;;5.12;100.00;93003.22;2105928;28;20024;-78
2021/09/18 04:17:56;;;;;;;5.78;4.13;;;;;;;5.12;100.00;93017.19;2114840;28;20028;-78
2021/09/18 04:18:57;;;;;;;4.32;3.92;;;;;;;5.09;100.00;93017.22;2105059;28;20561;-78
2021/09/18 04:19:59;;;;;;;5.68;3.50;;;;;;;5.24;100.00;93013.38;2098017;28;20073;-79
2021/09/18 04:21:00;;;;;;;4.28;3.83;;;;;;;5.12;100.00;93011.16;2115427;28;20020;-78
2021/09/18 04:22:02;;;;;;;4.13;3.72;;;;;;;5.00;100.00;93010.44;2115037;28;20470;-79
2021/09/18 04:23:03;;;;;;;5.35;3.92;;;;;;;5.01;100.00;93019.13;2106702;28;20059;-77
2021/09/18 04:24:05;;;;;;;4.55;4.15;;;;;;;5.08;100.00;93013.06;2101889;28;20094;-79
2021/09/18 04:25:07;;;;;;;5.03;4.15;;;;;;;5.09;100.00;93012.66;2100966;28;20105;-78
2021/09/18 04:26:08;;;;;;;6.65;4.38;;;;;;;5.12;100.00;93014.56;2106745;28;20552;-79
2021/09/18 04:27:09;;;;;;;5.50;3.97;;;;;;;5.08;100.00;93011.16;2106446;28;20028;-78
2021/09/18 04:28:11;;;;;;;6.70;5.82;;;;;;;5.05;100.00;93018.00;2106389;28;20029;-78
2021/09/18 04:29:12;;;;;;;5.47;4.30;;;;;;;5.06;100.00;93021.41;2115157;28;20023;-78
2021/09/18 04:30:13;;;;;;;5.07;3.42;;;;;;;5.03;100.00;93016.84;2113194;28;20016;-80
2021/09/18 04:31:15;;;;;;;3.67;3.38;;;;;;;4.99;100.00;93021.41;2112944;28;20034;-78
2021/09/18 04:32:16;;;;;;;4.15;3.63;;;;;;;5.03;100.00;93025.56;2115164;28;20406;-79
2021/09/18 04:33:17;;;;;;;4.35;3.95;;;;;;;4.96;100.00;93016.84;2106409;28;20035;-79
2021/09/18 04:34:18;;;;;;;4.05;3.72;;;;;;;5.11;100.00;93014.94;2106823;28;20026;-82
2021/09/18 04:35:19;;;;;;;4.13;3.75;;;;;;;5.09;100.00;93023.25;2115508;28;20391;-81
2021/09/18 04:36:21;;;;;;;4.15;3.75;;;;;;;5.08;100.00;93018.34;2109581;28;20093;-81
2021/09/18 04:37:22;;;;;;;4.40;3.65;;;;;;;4.96;100.00;93027.44;2114113;28;20015;-81
2021/09/18 04:38:24;;;;;;;4.22;3.83;;;;;;;4.99;100.00;93026.69;2116775;27;20024;-78
2021/09/18 04:39:26;;;;;;;3.88;3.58;;;;;;;5.05;100.00;93022.53;2106667;28;20032;-80
2021/09/18 04:40:29;;;;;;;4.43;3.80;;;;;;;5.11;100.00;93021.00;2114922;28;20055;-82
2021/09/18 04:41:30;;;;;;;4.38;3.85;;;;;;;5.09;100.00;93022.50;2110355;28;20070;-82
2021/09/18 04:42:31;;;;;;;3.95;3.60;;;;;;;5.01;100.00;93024.44;2115072;28;20011;-81
2021/09/18 04:43:32;;;;;;;6.00;5.13;;;;;;;4.95;100.00;93024.06;2106464;28;20552;-80
2021/09/18 04:44:34;;;;;;;4.53;4.07;;;;;;;4.82;100.00;93028.25;2108438;28;20055;-81
2021/09/18 04:45:35;;;;;;;4.40;4.00;;;;;;;4.80;100.00;93025.97;2106407;28;20638;-80
2021/09/18 04:46:36;;;;;;;4.75;4.35;;;;;;;4.83;100.00;93029.78;2106208;28;20030;-78
2021/09/18 04:47:37;;;;;;;5.05;4.07;;;;;;;4.84;100.00;93030.53;2114712;28;20106;-78
2021/09/18 04:48:38;;;;;;;3.97;3.60;;;;;;;4.86;100.00;93021.03;2115487;28;20024;-81
2021/09/18 04:49:40;;;;;;;4.82;4.15;;;;;;;4.84;100.00;93027.88;2115570;28;20474;-79
2021/09/18 04:50:41;;;;;;;8.07;3.90;;;;;;;4.84;100.00;93027.88;2102438;28;20664;-81
2021/09/18 04:51:42;;;;;;;5.03;4.13;;;;;;;4.87;100.00;93027.09;2094715;28;20024;-78
2021/09/18 04:52:43;;;;;;;4.93;3.70;;;;;;;4.80;100.00;93025.22;2115015;28;20030;-83